Stouffville, Canada
Current Conditions -  °F | °C
As of 5:00 AM on Thursday 23 Oct 2014 (Local Time) from CYKZ Reporting Station
Clear Clear  
Wind Chill: 39°   Ceiling: Unl
Heat Index: 43°   Visibility: 15mi
Dew Point: 39°   Wind: 6mph
Humidity: 87%   Direction: 340°NNW
Pressure: 30.2"   Gusts: NA
Location:  43.97°N, 79.25°W
Report Text: CYKZ 230900Z 34005KT 15SM SKC 06/04 A3020 RMK SLP230
Loading
Personal Weather Stations






























Interactive Weather Map
Tropical Storm Tracking
New forecast layout! Learn more

10-Day Weather Forecast

Advertisements
Track Severe Weather on mobile